Hovedside
METAR-TAF:

METAR-TAF

Lufthavner :

Rørvik, Norge

Rørvik lufthavn

breddegrad: 64-50N, lengdegrad: 011-09E, høyde over havet: 4 m

Gjeldene værobservasjon

Denne rapporten ble laget for 4 timer og 43 minutter siden, klokken 17:20 UTC
Vind 6 kt fra Øst
Temperatur 18°C
Luftfuktighet 68%
Trykk 1005 hPa
Sikt 10 km eller mer
ingen skyer under 1500 m og ingen bygeskyer

METAR: ENRM 181720Z 10006KT CAVOK 18/12 Q1005

Tid: 00:03 (22:03 UTC)

Varsel

Denne rapporten ble laget for 14 timer og 3 minutter siden, klokken 08:00 UTC
Varsel gyldig fra 18. klokken 09 UTC til 18. klokken 12 UTC
Vind 10 kt fra Sørøst
Sikt 10 km eller mer
ingen skyer under 1500 m og ingen bygeskyer

TAF: ENRM 180800Z 1809/1812 14010KT CAVOK

Værobservasjoner og værvarsel for over 4000 flyplasser (METAR- og TAF-rapporter).

Tilgjengelige stasjoner er representert av de røde og gule prikkene på kartet.

Hold musepekeren over prikken for å se navnet på stasjonen.

Klikk så for å se værobservasjoner og -varsler.

For å forandre kartet kan du klikke på den grønne knappen med svart kryss for å zoome inn, på den grønne knappen med strek for å zoome ut, eller på de grønne pilene for å se tilstøtende kart.


METAR-TAF: